Time;durP1;ratioP1;P1;durP2;ratioP2;P2;SDS_P1;SDS_P2;PMS_P1;PMS_P2;Temp;Humidity;BMP_temperature;BMP_pressure;BME280_temperature;BME280_humidity;BME280_pressure;Samples;Min_cycle;Max_cycle;Signal;HPM_P1;HPM_P2
2023/08/24 00:02:03;;;;;;;8.50;7.70;;;18.90;90.20;;;18.49;80.41;98194.09;5092011;28;20473;-70
2023/08/24 00:04:30;;;;;;;8.60;7.80;;;18.80;90.20;;;18.50;80.94;98190.25;5091281;28;20955;-70
2023/08/24 00:06:59;;;;;;;8.50;7.70;;;18.80;90.60;;;18.15;81.34;98145.97;5092951;28;20497;-70
2023/08/24 00:09:28;;;;;;;8.67;7.97;;;18.70;90.60;;;18.32;82.31;98181.38;5075793;28;20791;-71
2023/08/24 00:11:55;;;;;;;11.33;8.13;;;18.70;91.00;;;18.25;82.40;98180.78;5087607;28;20915;-71
2023/08/24 00:14:22;;;;;;;9.13;8.40;;;18.60;91.00;;;18.20;82.31;98186.22;5090859;28;20497;-70
2023/08/24 00:16:50;;;;;;;8.50;7.83;;;18.60;91.00;;;18.24;82.15;98190.06;5100530;28;20668;-70
2023/08/24 00:19:17;;;;;;;8.93;8.23;;;18.60;91.10;;;18.12;81.89;98177.41;5092349;28;21005;-71
2023/08/24 00:21:44;;;;;;;8.10;7.40;;;18.50;91.00;;;18.07;82.71;98177.38;5090198;28;20616;-70
2023/08/24 00:24:13;;;;;;;9.07;8.23;;;18.50;91.20;;;17.90;82.91;98157.50;5092167;28;20448;-70
2023/08/24 00:26:40;;;;;;;8.87;8.17;;;18.50;91.30;;;17.99;83.15;98175.09;5099752;28;20451;-70
2023/08/24 00:29:07;;;;;;;9.50;8.60;;;18.40;91.40;;;17.97;83.96;98177.25;5090979;28;20446;-69
2023/08/24 00:31:34;;;;;;;9.90;9.00;;;18.30;91.90;;;17.89;84.28;98175.00;5091249;28;20463;-71
2023/08/24 00:34:01;;;;;;;8.80;7.90;;;18.30;92.00;;;17.83;84.05;98177.69;5089859;28;20584;-70
2023/08/24 00:36:28;;;;;;;9.47;8.77;;;18.30;91.90;;;17.82;84.75;98172.47;5092107;28;20451;-70
2023/08/24 00:38:55;;;;;;;9.93;8.50;;;18.20;92.20;;;17.77;85.29;98173.25;5087901;28;20460;-70
2023/08/24 00:41:25;;;;;;;9.07;8.33;;;18.20;92.40;;;17.79;84.92;98171.06;5089076;28;20463;-71
2023/08/24 00:43:53;;;;;;;9.00;8.30;;;18.20;92.40;;;17.73;84.77;98172.13;5083638;28;20464;-71
2023/08/24 00:46:20;;;;;;;9.20;8.30;;;18.10;92.30;;;17.66;84.83;98166.03;5086934;28;20988;-69
2023/08/24 00:48:48;;;;;;;10.03;9.00;;;18.10;92.30;;;17.63;85.19;98169.28;5090349;28;20460;-70
2023/08/24 00:51:15;;;;;;;12.03;8.60;;;18.00;92.50;;;17.63;85.15;98161.91;5096338;27;20804;-70
2023/08/24 00:53:42;;;;;;;10.63;8.53;;;18.00;92.40;;;17.64;84.81;98158.09;5092144;28;20456;-69
2023/08/24 00:56:10;;;;;;;9.77;8.87;;;18.00;92.40;;;17.51;85.65;98156.59;5092167;28;20443;-70
2023/08/24 00:58:39;;;;;;;8.80;8.00;;;18.00;92.60;;;17.28;86.17;98128.50;5090767;28;20517;-70
2023/08/24 01:01:07;;;;;;;9.77;8.87;;;17.90;92.90;;;17.43;86.01;98162.53;5090694;28;20463;-71
2023/08/24 01:03:34;;;;;;;9.07;8.23;;;17.80;92.80;;;17.37;86.14;98164.38;5084645;28;20472;-70
2023/08/24 01:06:02;;;;;;;10.63;8.30;;;17.80;93.00;;;17.37;86.16;98160.84;5090048;28;20516;-70
2023/08/24 01:08:29;;;;;;;9.30;8.50;;;17.70;92.90;;;17.35;86.13;98161.09;5079382;28;20534;-71
2023/08/24 01:11:06;;;;;;;9.33;8.53;;;17.70;93.10;;;17.22;85.72;98162.31;5089978;28;20501;-70
2023/08/24 01:13:44;;;;;;;8.63;7.93;;;17.60;92.70;;;17.23;86.20;98153.03;5091248;28;20458;-69
2023/08/24 01:16:17;;;;;;;8.87;8.07;;;17.60;93.00;;;17.23;85.67;98153.03;5090123;28;20803;-71
2023/08/24 01:18:45;;;;;;;8.73;8.03;;;17.60;92.90;;;17.07;85.80;98159.41;5082518;28;20883;-70
2023/08/24 01:21:15;;;;;;;9.60;8.70;;;17.60;92.60;;;17.13;85.45;98153.72;5084539;28;20484;-69
2023/08/24 01:23:54;;;;;;;11.47;8.63;;;17.60;92.50;;;17.07;85.82;98152.03;5082194;28;20546;-71
2023/08/24 01:26:23;;;;;;;9.37;8.67;;;17.50;92.60;;;17.15;85.24;98150.75;5089818;28;20455;-71
2023/08/24 01:28:51;;;;;;;9.10;8.30;;;17.50;92.60;;;17.06;85.80;98147.66;5087696;28;20923;-70
2023/08/24 01:31:18;;;;;;;9.60;8.80;;;17.50;92.70;;;17.09;85.27;98151.78;5090203;28;20461;-71
2023/08/24 01:33:46;;;;;;;9.73;8.93;;;17.50;92.60;;;17.13;85.66;98155.66;5091366;28;20504;-70
2023/08/24 01:36:17;;;;;;;9.40;8.60;;;17.50;92.70;;;17.03;85.78;98136.41;5091187;28;20459;-70
2023/08/24 01:38:46;;;;;;;9.57;8.77;;;17.50;92.70;;;17.15;85.58;98145.28;5077213;28;20566;-70
2023/08/24 01:41:18;;;;;;;9.20;8.00;;;17.50;92.70;;;17.15;85.45;98152.66;5090216;28;20533;-70
2023/08/24 01:43:51;;;;;;;8.50;7.70;;;17.50;92.60;;;17.11;85.28;98144.97;5089502;28;20471;-70
2023/08/24 01:46:20;;;;;;;9.70;8.70;;;17.50;92.60;;;17.04;85.21;98143.50;5087582;28;20535;-70
2023/08/24 01:48:49;;;;;;;9.53;8.63;;;17.50;92.40;;;16.98;85.45;98148.88;5084722;28;20916;-70
2023/08/24 01:51:16;;;;;;;8.60;7.83;;;17.40;92.50;;;17.02;85.02;98145.69;5089732;28;20493;-71
2023/08/24 01:53:44;;;;;;;11.30;8.73;;;17.40;92.40;;;16.96;85.13;98142.88;5090841;28;20466;-69
2023/08/24 01:56:12;;;;;;;8.63;7.87;;;17.40;92.40;;;16.91;85.94;98151.00;5090483;28;20456;-70
2023/08/24 01:58:40;;;;;;;9.57;8.83;;;17.30;92.60;;;16.94;85.86;98150.50;5097878;28;20452;-70
2023/08/24 02:01:10;;;;;;;9.23;8.53;;;17.40;92.70;;;16.91;85.69;98145.53;5089462;28;20467;-70
2023/08/24 02:03:38;;;;;;;10.00;9.00;;;17.30;92.60;;;16.82;86.51;98141.59;5088633;28;20477;-70
2023/08/24 02:06:06;;;;;;;9.43;8.53;;;17.30;92.80;;;16.99;85.84;98142.38;5086569;28;20801;-70
2023/08/24 02:08:33;;;;;;;9.50;8.70;;;17.30;93.00;;;17.13;84.75;98147.47;5081280;28;20502;-70
2023/08/24 02:11:01;;;;;;;9.10;8.20;;;17.30;92.80;;;17.06;84.63;98141.34;5087003;28;20824;-71
2023/08/24 02:13:28;;;;;;;9.07;8.37;;;17.20;92.80;;;17.00;84.98;98137.75;5088948;28;20450;-70
2023/08/24 02:16:03;;;;;;;9.07;8.17;;;17.10;93.20;;;16.94;85.39;98128.66;5086073;28;20449;-70
2023/08/24 02:18:32;;;;;;;9.57;8.87;;;17.10;93.50;;;16.96;85.15;98131.94;5089165;28;20461;-69
2023/08/24 02:20:59;;;;;;;8.87;8.20;;;17.00;93.70;;;17.01;84.68;98138.56;5088680;28;20859;-71
2023/08/24 02:23:26;;;;;;;10.50;8.93;;;17.00;93.30;;;16.91;84.74;98133.78;5089420;28;20483;-70
2023/08/24 02:25:53;;;;;;;10.23;9.33;;;17.10;93.10;;;16.82;85.33;98130.69;5089136;28;20550;-70
2023/08/24 02:28:20;;;;;;;10.60;9.63;;;17.10;93.20;;;16.82;85.71;98141.59;5090315;28;20447;-70
2023/08/24 02:30:48;;;;;;;9.83;8.93;;;17.10;93.20;;;16.77;85.85;98133.34;5088744;28;20446;-70
2023/08/24 02:33:15;;;;;;;10.90;8.80;;;17.00;93.20;;;15.99;85.78;98009.59;5089425;28;20867;-71
2023/08/24 02:35:44;;;;;;;9.03;8.13;;;17.00;93.30;;;16.76;85.94;98131.72;5088558;28;21155;-70
2023/08/24 02:38:12;;;;;;;11.33;9.07;;;17.00;93.40;;;16.79;85.98;98139.38;5090593;28;20930;-70
2023/08/24 02:40:39;;;;;;;10.53;9.53;;;17.00;93.40;;;16.80;85.88;98151.94;5085253;28;20462;-70
2023/08/24 02:43:06;;;;;;;8.97;8.10;;;16.90;93.60;;;16.69;86.36;98148.25;5089322;28;20537;-69
2023/08/24 02:45:33;;;;;;;10.50;9.50;;;16.90;93.70;;;16.64;86.74;98146.28;5103871;28;20513;-70
2023/08/24 02:48:00;;;;;;;9.73;8.83;;;16.90;94.00;;;16.14;86.83;98067.06;5090230;28;20996;-69
2023/08/24 02:50:27;;;;;;;9.27;8.57;;;16.80;94.00;;;16.68;86.68;98146.59;5088936;28;20447;-68
2023/08/24 02:52:57;;;;;;;10.27;9.30;;;16.90;94.00;;;16.67;86.52;98143.03;5087906;28;20793;-68
2023/08/24 02:55:25;;;;;;;9.50;8.70;;;16.80;93.90;;;16.59;87.08;98143.47;5103416;28;20448;-69
2023/08/24 02:57:52;;;;;;;10.00;9.20;;;16.80;94.20;;;16.27;88.94;98153.13;5090033;28;20594;-71
2023/08/24 03:00:19;;;;;;;9.70;8.90;;;16.70;94.40;;;16.29;89.13;98150.13;5085447;28;20448;-68
2023/08/24 03:02:47;;;;;;;11.07;9.97;;;16.70;94.40;;;16.34;88.65;98152.94;5088188;28;20446;-70
2023/08/24 03:05:14;;;;;;;9.70;8.77;;;16.80;94.10;;;16.36;88.24;98149.94;5085340;28;20438;-70
2023/08/24 03:07:41;;;;;;;9.67;8.80;;;16.80;93.90;;;16.24;89.54;98144.59;5080080;28;20434;-70
2023/08/24 03:10:11;;;;;;;10.80;10.00;;;16.80;94.20;;;16.24;89.51;98155.50;5091685;28;20508;-70
2023/08/24 03:12:38;;;;;;;9.77;8.80;;;16.70;94.40;;;16.23;89.69;98162.03;5092597;28;20443;-71
2023/08/24 03:15:07;;;;;;;10.93;10.03;;;16.70;94.30;;;16.12;90.42;98158.34;5093571;28;20457;-69
2023/08/24 03:17:34;;;;;;;10.37;9.10;;;16.60;94.50;;;15.57;90.73;98084.41;5093203;28;20478;-69
2023/08/24 03:20:02;;;;;;;10.33;9.43;;;16.60;94.90;;;16.10;91.01;98164.03;5093545;28;20458;-69
2023/08/24 03:22:29;;;;;;;10.70;9.87;;;16.60;95.50;;;16.03;91.06;98160.66;5086337;28;20806;-71
2023/08/24 03:24:56;;;;;;;10.50;9.40;;;16.60;95.30;;;16.18;90.50;98167.41;5092361;28;20538;-69
2023/08/24 03:27:25;;;;;;;11.40;10.10;;;16.60;95.50;;;16.23;90.23;98172.94;5092084;28;20457;-69
2023/08/24 03:29:54;;;;;;;10.40;9.43;;;16.60;95.20;;;16.11;90.01;98137.59;5092096;28;20837;-70
2023/08/24 03:32:21;;;;;;;10.83;9.93;;;16.60;95.00;;;16.33;89.58;98159.47;5092472;28;20463;-69
2023/08/24 03:34:48;;;;;;;11.50;10.50;;;16.70;94.60;;;16.34;89.36;98161.13;5093365;28;20930;-69
2023/08/24 03:37:15;;;;;;;10.80;9.90;;;16.80;94.70;;;16.30;89.67;98154.50;5093343;28;20683;-69
2023/08/24 03:39:43;;;;;;;10.53;9.57;;;16.80;94.50;;;16.26;90.08;98156.09;5090972;28;20772;-69
2023/08/24 03:42:10;;;;;;;9.97;9.17;;;16.70;94.70;;;16.23;90.87;98159.31;5091429;28;21049;-70
2023/08/24 03:44:39;;;;;;;10.20;9.40;;;16.70;95.00;;;16.17;90.98;98158.41;5092827;28;21259;-69
2023/08/24 03:47:06;;;;;;;10.13;9.33;;;16.60;95.40;;;16.14;91.32;98165.16;5091690;28;20851;-70
2023/08/24 03:49:33;;;;;;;10.70;9.50;;;16.50;95.90;;;16.11;91.73;98160.22;5092450;28;20479;-70
2023/08/24 03:52:01;;;;;;;10.17;9.30;;;16.50;96.20;;;16.13;91.55;98149.88;5092216;28;20484;-70
2023/08/24 03:54:28;;;;;;;9.80;8.93;;;16.50;96.00;;;16.21;90.58;98147.84;5091086;28;20451;-70
2023/08/24 03:56:55;;;;;;;10.20;9.27;;;16.60;95.60;;;16.29;90.07;98140.06;5091814;28;20952;-69
2023/08/24 03:59:22;;;;;;;10.00;9.10;;;16.70;95.20;;;16.29;89.71;98141.94;5091264;28;20456;-70
2023/08/24 04:01:51;;;;;;;10.93;10.03;;;16.70;94.70;;;16.20;90.13;98132.56;5092040;28;20483;-71
2023/08/24 04:04:18;;;;;;;10.83;9.83;;;16.70;94.70;;;16.22;89.84;98135.84;5091319;28;20504;-69
2023/08/24 04:06:45;;;;;;;11.93;10.30;;;16.70;94.80;;;16.25;89.67;98133.47;5090965;28;20454;-70
2023/08/24 04:09:13;;;;;;;10.40;9.60;;;16.70;94.60;;;16.28;89.52;98126.66;5088285;28;20521;-71
2023/08/24 04:11:40;;;;;;;9.57;8.77;;;16.70;94.60;;;16.20;89.68;98119.75;5089371;28;20445;-70
2023/08/24 04:14:09;;;;;;;10.43;9.33;;;16.70;94.60;;;16.39;89.06;98133.94;5091762;28;20462;-70
2023/08/24 04:16:36;;;;;;;9.60;8.80;;;16.70;94.50;;;16.57;87.89;98140.16;5089495;28;20458;-69
2023/08/24 04:19:05;;;;;;;10.10;9.07;;;16.70;94.30;;;16.45;87.65;98134.00;5090800;28;20804;-70
2023/08/24 04:21:32;;;;;;;9.83;9.03;;;16.70;94.20;;;16.47;88.03;98132.69;5083285;28;20481;-70
2023/08/24 04:23:59;;;;;;;10.60;9.70;;;16.70;94.30;;;16.47;87.64;98129.13;5091868;28;21005;-70
2023/08/24 04:26:26;;;;;;;9.27;8.47;;;16.70;94.20;;;16.41;87.82;98130.97;5091821;28;20518;-69
2023/08/24 04:28:54;;;;;;;8.40;7.80;;;16.70;94.00;;;16.52;87.38;98145.56;5092267;28;20445;-70
2023/08/24 04:31:21;;;;;;;9.43;8.53;;;16.70;94.00;;;16.46;86.75;98138.41;5090734;28;20458;-70
2023/08/24 04:33:48;;;;;;;9.30;8.40;;;16.70;93.60;;;16.40;86.52;98140.22;5088613;28;20457;-70
2023/08/24 04:36:16;;;;;;;13.87;9.50;;;16.70;93.30;;;16.49;86.35;98152.34;5088004;28;20484;-69
2023/08/24 04:38:43;;;;;;;9.20;8.40;;;16.70;93.30;;;16.61;85.51;98144.06;5091924;28;20473;-70
2023/08/24 04:41:12;;;;;;;9.20;8.40;;;16.80;93.00;;;16.68;85.24;98147.41;5086728;28;20998;-69
2023/08/24 04:43:39;;;;;;;9.57;8.40;;;16.90;92.80;;;16.79;84.03;98131.19;5089893;28;20461;-70
2023/08/24 04:46:06;;;;;;;8.77;8.07;;;17.10;92.30;;;16.83;83.79;98137.78;5092552;28;20912;-70
2023/08/24 04:48:34;;;;;;;8.90;8.10;;;17.10;91.90;;;16.88;83.53;98142.50;5091197;28;20453;-69
2023/08/24 04:51:02;;;;;;;11.40;8.23;;;17.20;91.80;;;16.48;83.28;98070.78;5096158;28;20605;-71
2023/08/24 04:53:31;;;;;;;8.67;7.80;;;17.20;91.80;;;17.09;82.32;98138.13;5090453;28;20442;-70
2023/08/24 04:55:58;;;;;;;8.33;7.53;;;17.40;91.50;;;17.02;82.02;98123.84;5091708;28;20461;-70
2023/08/24 04:58:26;;;;;;;9.70;8.70;;;17.40;91.20;;;17.23;81.60;98139.38;5090464;28;20446;-68
2023/08/24 05:00:53;;;;;;;8.90;8.10;;;17.50;91.10;;;17.38;80.97;98137.91;5090574;28;20458;-70
2023/08/24 05:03:21;;;;;;;8.70;8.00;;;17.70;91.00;;;17.60;79.60;98137.00;5089931;28;20456;-70
2023/08/24 05:05:48;;;;;;;9.93;8.93;;;17.90;90.60;;;17.74;78.54;98134.69;5086880;28;20441;-70
2023/08/24 05:08:15;;;;;;;8.37;7.60;;;18.10;90.20;;;17.28;78.72;98068.44;5089969;28;20954;-70
2023/08/24 05:10:45;;;;;;;8.33;7.50;;;18.20;90.00;;;18.18;76.78;98133.72;5081783;28;20462;-71
2023/08/24 05:13:12;;;;;;;9.80;8.57;;;18.40;89.70;;;18.11;76.85;98123.00;5087461;28;20542;-70
2023/08/24 05:15:39;;;;;;;9.17;8.27;;;18.50;89.00;;;18.36;75.55;98130.53;5090973;28;20845;-70
2023/08/24 05:18:07;;;;;;;8.43;7.73;;;18.80;88.30;;;18.55;74.55;98116.41;5089846;28;20528;-71
2023/08/24 05:20:34;;;;;;;8.70;6.90;;;19.10;87.90;;;18.80;73.11;98128.59;5090492;28;20773;-71
2023/08/24 05:23:01;;;;;;;7.47;6.67;;;19.30;86.70;;;19.24;71.00;98124.66;5083750;28;20531;-70
2023/08/24 05:25:28;;;;;;;8.10;6.50;;;19.60;85.90;;;19.56;69.69;98139.25;5089668;28;20473;-70
2023/08/24 05:27:57;;;;;;;8.80;7.40;;;20.00;85.20;;;19.56;69.32;98133.78;5090001;28;20938;-70
2023/08/24 05:30:25;;;;;;;8.30;6.53;;;20.20;84.30;;;19.64;68.41;98136.00;5090670;28;20545;-70
2023/08/24 05:32:52;;;;;;;6.27;5.70;;;20.40;83.60;;;20.02;67.19;98139.31;5089579;28;20538;-70
2023/08/24 05:35:19;;;;;;;7.50;6.70;;;20.60;83.30;;;20.55;65.01;98129.09;5090841;28;21012;-70
2023/08/24 05:37:46;;;;;;;9.10;6.63;;;21.00;82.30;;;20.99;63.43;98133.09;5091320;28;20450;-71
2023/08/24 05:40:14;;;;;;;6.23;5.73;;;21.40;81.70;;;20.36;65.32;98127.75;5082726;28;20458;-70
2023/08/24 05:42:41;;;;;;;6.90;6.23;;;21.20;81.10;;;20.71;64.16;98118.91;5089974;28;20502;-70
2023/08/24 05:45:11;;;;;;;7.67;5.37;;;21.30;81.00;;;20.52;64.71;98122.25;5090730;28;20470;-70
2023/08/24 05:47:38;;;;;;;6.87;6.30;;;21.40;80.50;;;20.45;65.22;98117.03;5090788;28;20504;-70
2023/08/24 05:50:07;;;;;;;6.40;5.80;;;21.20;80.60;;;20.66;64.47;98120.56;5090794;28;20837;-70
2023/08/24 05:52:35;;;;;;;6.00;5.50;;;21.30;80.70;;;20.28;64.77;98116.53;5089388;28;20460;-71
2023/08/24 05:55:02;;;;;;;6.90;5.50;;;20.80;80.60;;;20.34;65.21;98127.22;5089440;28;20789;-69
2023/08/24 05:57:29;;;;;;;6.90;5.90;;;20.70;81.10;;;20.41;65.07;98131.63;5089291;28;20977;-70
2023/08/24 05:59:56;;;;;;;5.57;5.07;;;20.70;81.40;;;20.34;65.34;98132.69;5090712;28;20615;-70
2023/08/24 06:02:25;;;;;;;5.70;5.20;;;20.60;81.50;;;20.33;66.07;98142.03;5105370;28;20448;-69
2023/08/24 06:04:52;;;;;;;5.33;4.93;;;20.50;82.10;;;19.62;68.12;98140.91;5090616;28;20474;-70
2023/08/24 06:07:21;;;;;;;5.83;5.33;;;20.20;82.30;;;19.67;68.09;98124.50;5088733;28;20828;-69
2023/08/24 06:09:48;;;;;;;6.17;5.13;;;20.20;82.40;;;19.40;69.21;98125.53;5089547;28;20825;-70
2023/08/24 06:12:16;;;;;;;12.80;6.87;;;20.00;82.70;;;19.13;70.35;98112.06;5089394;28;20516;-71
2023/08/24 06:14:43;;;;;;;12.20;6.00;;;19.80;82.90;;;19.32;69.08;98090.44;5088005;28;20477;-70
2023/08/24 06:17:10;;;;;;;8.40;6.57;;;19.90;82.90;;;19.17;70.06;98078.38;5090419;28;20443;-70
2023/08/24 06:19:38;;;;;;;6.23;5.60;;;19.80;83.10;;;19.20;70.67;98066.88;5089113;28;20453;-69
2023/08/24 06:22:06;;;;;;;6.30;5.70;;;19.80;83.50;;;18.68;71.45;97992.00;5082793;28;20995;-72
2023/08/24 06:24:33;;;;;;;6.77;6.20;;;19.70;83.80;;;19.11;71.10;98041.97;5088880;28;20477;-70
2023/08/24 06:27:00;;;;;;;5.90;5.30;;;19.70;83.80;;;18.91;71.90;98019.97;5106175;28;20582;-70
2023/08/24 06:29:29;;;;;;;6.97;6.37;;;19.50;83.80;;;19.12;71.28;98026.34;5099179;28;20464;-70
2023/08/24 06:31:56;;;;;;;6.80;6.20;;;19.60;84.00;;;19.07;71.45;98024.41;5088200;28;20452;-70
2023/08/24 06:34:24;;;;;;;11.20;6.23;;;19.60;84.10;;;19.27;70.93;98046.63;5090130;28;20504;-69
2023/08/24 06:36:55;;;;;;;7.20;6.60;;;19.70;84.20;;;19.42;70.31;98045.84;5090247;28;20923;-70
2023/08/24 06:39:24;;;;;;;7.30;6.60;;;19.80;84.10;;;19.42;70.87;98043.91;5087708;28;20462;-71
2023/08/24 06:41:52;;;;;;;8.83;6.70;;;19.80;84.30;;;19.37;70.83;98043.91;5089664;28;20446;-68
2023/08/24 06:44:19;;;;;;;7.63;6.97;;;19.80;84.10;;;19.50;70.75;98043.38;5092505;28;20469;-70
2023/08/24 06:46:46;;;;;;;7.10;6.50;;;19.90;84.30;;;19.46;71.06;98031.28;5095347;28;20461;-69
2023/08/24 06:49:14;;;;;;;8.77;6.73;;;20.00;84.20;;;19.31;70.63;97977.34;5082869;28;20506;-70
2023/08/24 06:51:41;;;;;;;7.40;6.40;;;20.10;84.30;;;19.77;69.78;98020.31;5091260;28;20546;-71
2023/08/24 06:54:09;;;;;;;6.40;5.90;;;20.30;83.90;;;20.27;68.78;98029.84;5087979;28;20453;-69
2023/08/24 06:56:36;;;;;;;7.27;5.80;;;20.50;83.90;;;20.70;67.02;98030.25;5094028;28;20502;-71
2023/08/24 06:59:03;;;;;;;6.30;5.90;;;20.90;83.50;;;21.12;64.25;98041.84;5088202;28;20965;-70
2023/08/24 07:01:31;;;;;;;5.83;5.27;;;21.30;82.10;;;21.45;63.33;98047.66;5090459;28;20499;-70
2023/08/24 07:03:58;;;;;;;5.77;5.27;;;21.70;81.70;;;21.56;62.90;98050.34;5092283;28;20509;-70
2023/08/24 07:06:26;;;;;;;5.70;5.20;;;21.90;81.10;;;21.41;62.79;98049.34;5089378;28;20489;-70
2023/08/24 07:08:53;;;;;;;6.20;5.30;;;21.90;80.80;;;21.43;63.42;98058.13;5093487;28;20520;-71
2023/08/24 07:11:23;;;;;;;6.10;5.40;;;21.90;80.90;;;21.74;63.39;98060.66;5092945;28;20451;-71
2023/08/24 07:13:50;;;;;;;6.60;5.87;;;22.00;81.40;;;21.88;62.56;98068.25;5084347;28;20451;-71
2023/08/24 07:16:17;;;;;;;7.40;5.40;;;22.20;81.00;;;21.82;61.94;98063.91;5092669;28;20446;-70
2023/08/24 07:18:45;;;;;;;5.87;5.23;;;22.20;80.20;;;21.70;62.23;98064.28;5093644;28;20516;-70
2023/08/24 07:21:14;;;;;;;6.10;5.57;;;22.20;80.20;;;21.70;62.33;98073.34;5090684;28;21025;-70
2023/08/24 07:23:41;;;;;;;10.53;5.67;;;22.10;80.20;;;22.17;61.67;98083.94;5092039;28;20466;-70
2023/08/24 07:26:09;;;;;;;6.90;5.70;;;22.30;80.40;;;22.29;60.55;98089.84;5093395;28;20474;-71
2023/08/24 07:28:37;;;;;;;6.37;5.63;;;22.50;79.90;;;22.35;60.37;98096.94;5093109;28;20946;-71
2023/08/24 07:31:10;;;;;;;8.03;5.07;;;22.60;79.60;;;22.49;60.09;98099.03;5093311;28;20511;-70
2023/08/24 07:33:38;;;;;;;6.23;5.63;;;22.80;79.60;;;22.80;60.39;98115.19;5092197;28;20463;-70
2023/08/24 07:36:06;;;;;;;6.17;5.57;;;22.90;80.00;;;22.64;59.91;98123.63;5085974;28;20479;-71
2023/08/24 07:38:34;;;;;;;5.80;5.20;;;23.00;79.10;;;22.60;60.23;98111.56;5092152;28;20450;-71
2023/08/24 07:41:01;;;;;;;6.40;5.90;;;23.00;79.20;;;22.85;59.32;98128.94;5085083;28;20504;-71
2023/08/24 07:43:28;;;;;;;8.20;5.70;;;23.10;78.80;;;23.13;59.15;98129.13;5092527;28;20443;-71
2023/08/24 07:45:57;;;;;;;7.20;6.50;;;23.20;79.00;;;22.89;59.26;98127.22;5093117;28;20971;-72
2023/08/24 07:48:24;;;;;;;7.40;6.67;;;23.20;78.80;;;22.88;59.96;98128.34;5093026;28;20499;-72
2023/08/24 07:50:51;;;;;;;7.20;6.20;;;23.20;78.90;;;22.98;60.19;98121.06;5093027;28;20940;-72
2023/08/24 07:53:19;;;;;;;6.83;6.13;;;23.20;79.10;;;22.79;60.67;98119.06;5088623;28;20512;-73
2023/08/24 07:55:46;;;;;;;7.03;6.33;;;23.20;79.30;;;22.74;59.75;98116.38;5091311;28;20539;-72
2023/08/24 07:58:14;;;;;;;5.60;5.20;;;23.00;78.50;;;22.99;58.87;98122.69;5093065;28;20876;-70
2023/08/24 08:00:41;;;;;;;6.03;5.50;;;23.00;78.50;;;23.10;59.23;98124.19;5092907;28;20501;-71
2023/08/24 08:03:09;;;;;;;10.50;6.20;;;23.20;78.70;;;23.02;59.10;98125.66;5090661;28;20452;-72
2023/08/24 08:05:37;;;;;;;7.10;4.77;;;23.30;78.50;;;22.89;59.02;98129.97;5089953;28;20531;-70
2023/08/24 08:08:05;;;;;;;7.27;5.33;;;23.20;77.90;;;23.01;60.02;98126.78;5091382;28;20563;-71
2023/08/24 08:10:32;;;;;;;6.53;5.70;;;23.30;78.80;;;22.83;61.41;98114.63;5092614;28;20912;-73
2023/08/24 08:12:59;;;;;;;7.07;6.03;;;23.20;79.40;;;22.65;62.99;98118.97;5090344;28;20445;-71
2023/08/24 08:15:27;;;;;;;8.67;5.57;;;22.90;80.20;;;22.81;61.42;98127.84;5092484;28;20451;-72
2023/08/24 08:17:54;;;;;;;7.30;5.63;;;23.10;79.90;;;22.89;61.86;98127.22;5092801;28;20983;-71
2023/08/24 08:20:22;;;;;;;6.80;6.20;;;23.00;80.20;;;22.93;61.82;98131.00;5087015;28;20436;-71
2023/08/24 08:22:50;;;;;;;6.27;5.77;;;23.10;80.60;;;22.69;63.03;98120.00;5085042;28;20456;-71
2023/08/24 08:25:18;;;;;;;6.07;5.57;;;22.90;80.60;;;22.79;62.78;98113.56;5091177;28;20813;-70
2023/08/24 08:27:45;;;;;;;7.37;6.67;;;23.00;80.50;;;22.60;62.67;98091.50;5092640;28;20451;-71
2023/08/24 08:30:14;;;;;;;6.00;5.60;;;23.10;80.40;;;22.90;61.71;98115.09;5091081;28;20463;-71
2023/08/24 08:32:42;;;;;;;5.93;5.40;;;23.20;80.00;;;22.76;60.92;98098.47;5091544;28;20478;-71
2023/08/24 08:35:10;;;;;;;7.40;5.30;;;23.20;79.20;;;22.93;60.25;98103.47;5092348;28;20453;-72
2023/08/24 08:37:38;;;;;;;6.70;5.30;;;23.30;78.90;;;22.84;60.81;98091.47;5091555;28;20451;-72
2023/08/24 08:40:11;;;;;;;5.80;5.10;;;23.20;78.90;;;22.72;60.46;98030.50;5092009;28;20446;-71
2023/08/24 08:42:38;;;;;;;6.03;5.43;;;23.40;79.20;;;23.28;59.52;98086.78;5090418;28;20462;-71
2023/08/24 08:45:10;;;;;;;5.57;5.07;;;23.60;78.70;;;23.64;58.79;98096.47;5090782;28;20474;-71
2023/08/24 08:47:38;;;;;;;5.40;4.90;;;23.80;78.50;;;23.89;58.11;98088.91;5087794;28;20450;-71
2023/08/24 08:50:06;;;;;;;6.60;5.30;;;24.00;78.30;;;24.12;57.55;98086.31;5084275;28;20450;-72
2023/08/24 08:52:34;;;;;;;6.20;4.43;;;24.30;77.90;;;24.22;55.69;98079.78;5089364;28;20807;-71
2023/08/24 08:55:06;;;;;;;5.80;5.13;;;24.40;76.50;;;24.15;55.96;98082.94;5091973;28;20456;-71
2023/08/24 08:57:35;;;;;;;7.07;6.37;;;24.50;76.70;;;24.54;56.73;98070.63;5091682;28;20440;-71
2023/08/24 09:00:03;;;;;;;5.80;5.30;;;24.70;77.40;;;24.59;55.22;98059.47;5090695;28;20477;-71
2023/08/24 09:02:31;;;;;;;6.20;5.40;;;24.90;76.20;;;24.93;55.41;98051.91;5102897;28;20452;-70
2023/08/24 09:04:59;;;;;;;4.83;4.40;;;25.10;76.40;;;24.77;53.24;98059.69;5073670;28;20531;-70
2023/08/24 09:07:27;;;;;;;4.87;3.93;;;25.10;73.90;;;25.14;51.69;98060.56;5086602;28;20444;-71
2023/08/24 09:09:54;;;;;;;4.23;3.80;;;25.30;73.60;;;25.43;50.69;98056.56;5104569;28;20947;-70
2023/08/24 09:12:23;;;;;;;4.93;4.47;;;25.50;72.80;;;25.86;50.86;98052.50;5087984;28;20443;-70
2023/08/24 09:14:50;;;;;;;4.33;3.80;;;25.80;73.00;;;25.93;50.34;98046.53;5078560;28;20440;-70
2023/08/24 09:17:23;;;;;;;5.13;4.60;;;26.10;72.20;;;26.07;49.84;98040.09;5090001;28;20454;-71
2023/08/24 09:19:52;;;;;;;5.60;3.93;;;26.20;71.60;;;26.49;48.65;98025.97;5085250;28;20445;-72
2023/08/24 09:22:19;;;;;;;4.40;4.00;;;26.60;70.70;;;26.34;49.78;98010.59;5089428;28;20963;-72
2023/08/24 09:24:51;;;;;;;4.87;4.00;;;26.60;71.20;;;26.40;50.61;97990.75;5091290;28;20452;-70
2023/08/24 09:27:20;;;;;;;4.60;4.20;;;26.70;71.50;;;26.19;50.42;97973.09;5091892;28;20503;-71
2023/08/24 09:29:51;;;;;;;4.50;4.10;;;26.70;71.00;;;26.46;49.19;98002.47;5084162;28;20802;-69
2023/08/24 09:32:24;;;;;;;4.60;4.20;;;26.70;70.10;;;26.21;49.13;98001.25;5085862;28;20456;-71
2023/08/24 09:34:52;;;;;;;3.50;3.30;;;26.60;70.00;;;26.11;48.35;98005.09;5087570;28;20458;-71
2023/08/24 09:37:19;;;;;;;4.10;3.80;;;26.50;68.50;;;26.14;48.50;98005.28;5105481;28;20462;-73
2023/08/24 09:39:47;;;;;;;4.37;3.97;;;26.50;68.70;;;26.13;48.79;98017.50;5088652;28;20458;-71
2023/08/24 09:42:15;;;;;;;4.90;4.03;;;26.40;68.70;;;26.14;48.05;98021.06;5086213;28;20507;-72
2023/08/24 09:44:45;;;;;;;3.63;3.43;;;26.40;68.10;;;26.24;47.76;98022.78;5090633;28;20477;-71
2023/08/24 09:47:15;;;;;;;3.90;3.70;;;26.40;68.00;;;25.98;47.31;98015.94;5091047;28;20481;-71
2023/08/24 09:49:42;;;;;;;4.83;4.40;;;26.20;67.10;;;26.13;47.63;98016.66;5084979;28;20450;-72
2023/08/24 09:52:10;;;;;;;4.57;4.20;;;26.20;67.40;;;26.01;47.84;98009.78;5090165;28;20451;-69
2023/08/24 09:54:39;;;;;;;7.17;3.83;;;26.20;67.10;;;25.97;47.55;97970.03;5088870;28;20444;-70
2023/08/24 09:57:08;;;;;;;4.80;4.10;;;26.40;67.30;;;26.41;47.21;97999.88;5091507;28;20490;-72
2023/08/24 09:59:38;;;;;;;4.60;4.20;;;26.50;66.90;;;26.37;45.71;97999.69;5090477;28;20533;-72
2023/08/24 10:02:18;;;;;;;3.90;3.40;;;26.60;65.50;;;26.37;46.44;97998.88;5084465;28;20507;-69
2023/08/24 10:04:48;;;;;;;3.90;3.60;;;26.60;66.00;;;26.52;46.94;97990.13;5080068;28;20983;-72
2023/08/24 10:07:21;;;;;;;4.43;4.03;;;26.70;66.70;;;26.76;46.58;97983.31;5090606;28;20534;-72
2023/08/24 10:09:59;;;;;;;5.60;4.33;;;26.90;66.40;;;26.66;46.46;97989.19;5086226;28;20446;-71
2023/08/24 10:12:33;;;;;;;4.30;4.00;;;26.90;65.70;;;26.71;46.96;97987.09;5086130;28;20443;-73
2023/08/24 10:15:02;;;;;;;4.80;3.90;;;26.90;66.10;;;26.85;45.69;97969.50;5090801;28;20458;-71
2023/08/24 10:17:33;;;;;;;4.23;3.73;;;27.00;65.10;;;26.93;45.88;97965.13;5085877;28;20838;-70
2023/08/24 10:20:05;;;;;;;7.40;3.90;;;27.10;65.50;;;27.11;46.98;97969.53;5090768;28;20451;-71
2023/08/24 10:22:32;;;;;;;5.90;4.40;;;27.20;66.00;;;26.84;45.61;97963.13;5088908;28;20941;-70